createdAt,value
2023-04-08T00:01:01.252Z,101103.69
2023-04-08T00:03:29.675Z,101111.00
2023-04-08T00:06:00.990Z,101114.25
2023-04-08T00:08:27.918Z,101112.66
2023-04-08T00:10:54.859Z,101111.00
2023-04-08T00:13:22.150Z,101121.72
2023-04-08T00:15:49.646Z,101112.66
2023-04-08T00:18:17.195Z,101118.00
2023-04-08T00:20:44.423Z,101107.75
2023-04-08T00:23:11.292Z,101109.84
2023-04-08T00:25:38.154Z,101116.84
2023-04-08T00:28:05.188Z,101119.03
2023-04-08T00:30:32.168Z,101111.59
2023-04-08T00:32:59.069Z,101109.47
2023-04-08T00:35:26.136Z,101115.41
2023-04-08T00:37:52.998Z,101108.75
2023-04-08T00:40:19.919Z,101121.94
2023-04-08T00:42:50.130Z,101119.03
2023-04-08T00:45:16.916Z,101124.84
2023-04-08T00:47:45.049Z,101115.91
2023-04-08T00:50:13.858Z,101118.00
2023-04-08T00:52:43.182Z,101118.47
2023-04-08T00:55:10.587Z,101121.84
2023-04-08T00:57:37.773Z,101115.69
2023-04-08T01:00:06.533Z,101119.88
2023-04-08T01:02:49.298Z,101127.78
2023-04-08T01:05:23.948Z,101120.34
2023-04-08T01:07:52.567Z,101132.13
2023-04-08T01:10:29.237Z,101123.03
2023-04-08T01:13:06.646Z,101124.09
2023-04-08T01:15:36.786Z,101123.50
2023-04-08T01:18:08.377Z,101125.03
2023-04-08T01:20:36.147Z,101121.63
2023-04-08T01:23:32.989Z,101123.16
2023-04-08T01:25:59.930Z,101116.31
2023-04-08T01:28:29.634Z,101116.88
2023-04-08T01:30:59.575Z,101116.78
2023-04-08T01:33:29.100Z,101124.34
2023-04-08T01:35:57.492Z,101126.31
2023-04-08T01:38:26.787Z,101115.47
2023-04-08T01:40:55.956Z,101123.84
2023-04-08T01:43:24.666Z,101123.09
2023-04-08T01:45:54.757Z,101126.81
2023-04-08T01:48:22.140Z,101113.81
2023-04-08T01:50:51.307Z,101120.53
2023-04-08T01:53:18.558Z,101115.66
2023-04-08T01:55:46.152Z,101122.50
2023-04-08T01:58:19.311Z,101117.03
2023-04-08T02:00:47.303Z,101122.38
2023-04-08T02:03:19.252Z,101121.47
2023-04-08T02:05:46.701Z,101124.63
2023-04-08T02:08:13.617Z,101113.88
2023-04-08T02:10:40.816Z,101117.22
2023-04-08T02:13:09.109Z,101117.38
2023-04-08T02:15:41.484Z,101117.25
2023-04-08T02:18:14.102Z,101112.72
2023-04-08T02:20:53.920Z,101119.66
2023-04-08T02:23:21.722Z,101117.13
2023-04-08T02:25:49.693Z,101116.19
2023-04-08T02:28:19.292Z,101126.31
2023-04-08T02:30:50.963Z,101120.81
2023-04-08T02:33:22.836Z,101124.78
2023-04-08T02:35:55.978Z,101123.38
2023-04-08T02:38:24.473Z,101128.16
2023-04-08T02:40:51.693Z,101127.31
2023-04-08T02:43:18.532Z,101124.63
2023-04-08T02:45:46.128Z,101128.75
2023-04-08T02:48:15.342Z,101124.56
2023-04-08T02:50:42.043Z,101125.72
2023-04-08T02:53:09.722Z,101126.91
2023-04-08T02:55:38.060Z,101119.91
2023-04-08T02:58:12.837Z,101119.69
2023-04-08T03:00:39.846Z,101126.41
2023-04-08T03:03:09.882Z,101121.66
2023-04-08T03:05:39.790Z,101123.84
2023-04-08T03:08:06.953Z,101122.00
2023-04-08T03:10:33.767Z,101123.41
2023-04-08T03:13:00.694Z,101131.53
2023-04-08T03:15:27.522Z,101138.06
2023-04-08T03:17:55.580Z,101129.00
2023-04-08T03:20:25.538Z,101125.50
2023-04-08T03:22:52.589Z,101128.53
2023-04-08T03:25:19.363Z,101131.31
2023-04-08T03:27:46.504Z,101127.38
2023-04-08T03:30:13.582Z,101136.19
2023-04-08T03:32:40.737Z,101131.66
2023-04-08T03:35:07.876Z,101136.19
2023-04-08T03:37:34.686Z,101137.25
2023-04-08T03:40:01.649Z,101132.94
2023-04-08T03:42:31.485Z,101136.69
2023-04-08T03:44:58.709Z,101141.78
2023-04-08T03:47:25.610Z,101140.75
2023-04-08T03:49:55.540Z,101137.50
2023-04-08T03:52:22.557Z,101141.19
2023-04-08T03:54:52.379Z,101144.13
2023-04-08T03:57:19.331Z,101146.22
2023-04-08T03:59:46.093Z,101147.13
2023-04-08T04:02:13.091Z,101139.47
2023-04-08T04:04:43.830Z,101144.13
2023-04-08T04:07:10.848Z,101137.13
2023-04-08T04:09:37.648Z,101143.75
2023-04-08T04:12:04.494Z,101151.41
2023-04-08T04:14:31.449Z,101152.91
2023-04-08T04:16:58.492Z,101148.03
2023-04-08T04:19:25.618Z,101152.31
2023-04-08T04:21:52.443Z,101150.72
2023-04-08T04:24:19.186Z,101156.28
2023-04-08T22:50:57.841Z,101524.78
2023-04-08T22:53:27.682Z,101518.03
2023-04-08T22:55:57.394Z,101517.56
2023-04-08T22:58:41.006Z,101516.53
2023-04-08T23:01:18.692Z,101525.97
2023-04-08T23:03:57.545Z,101520.00
2023-04-08T23:06:45.575Z,101520.59
2023-04-08T23:09:26.789Z,101517.81
2023-04-08T23:12:05.138Z,101511.59
2023-04-08T23:14:41.566Z,101514.28
2023-04-08T23:17:09.136Z,101522.00
2023-04-08T23:19:37.845Z,101521.31
2023-04-08T23:22:06.679Z,101521.78
2023-04-08T23:24:34.962Z,101523.41
2023-04-08T23:27:06.200Z,101530.41
2023-04-08T23:29:36.154Z,101525.06
2023-04-08T23:32:14.881Z,101527.72
2023-04-08T23:34:54.029Z,101531.22
2023-04-08T23:37:36.825Z,101536.38
2023-04-08T23:40:13.017Z,101533.09
2023-04-08T23:42:41.117Z,101524.34
2023-04-08T23:45:13.561Z,101532.28
2023-04-08T23:47:49.385Z,101532.41
2023-04-08T23:50:46.310Z,101528.75
2023-04-08T23:53:16.069Z,101528.31
2023-04-08T23:55:45.309Z,101535.28
2023-04-08T23:58:16.833Z,101533.09
